Cumby, Texas
Current Conditions -  °F | °C
As of 3:15 PM on Monday 24 Nov 2014 (Local Time) from KSLR Reporting Station
Clear Clear  
Wind Chill: 60°   Ceiling: Unl
Heat Index: 60°   Visibility: 10mi
Dew Point: 22°   Wind: 13mph
Humidity: 23%   Direction: 290°WNW
Pressure: 30.05"   Gusts: 18mph
Location:  33.14°N, 95.84°W
Report Text: KSLR 242115Z AUTO 29011G16KT 10SM CLR 16/M06 A3005 RMK AO2 T01561057
Loading
Personal Weather Stations






























Interactive Weather Map New forecast layout! Learn more

10-Day Weather Forecast

Advertisements
Track Severe Weather on mobile